createdAt,value
2023-11-23T00:01:16.446Z,0.74
2023-11-23T00:03:44.857Z,0.76
2023-11-23T00:06:13.323Z,0.75
2023-11-23T00:08:43.149Z,0.80
2023-11-23T00:11:11.894Z,0.81
2023-11-23T00:13:40.548Z,0.80
2023-11-23T00:16:11.131Z,0.83
2023-11-23T00:18:39.630Z,0.84
2023-11-23T00:21:08.227Z,0.80
2023-11-23T00:23:36.598Z,0.86
2023-11-23T00:26:05.262Z,0.88
2023-11-23T00:28:33.624Z,0.84
2023-11-23T00:31:02.069Z,0.80
2023-11-23T00:33:32.202Z,0.78
2023-11-23T00:36:00.867Z,0.74
2023-11-23T00:38:29.373Z,0.74
2023-11-23T00:40:57.749Z,0.78
2023-11-23T00:43:26.480Z,0.79
2023-11-23T00:45:54.852Z,0.77
2023-11-23T00:48:23.327Z,0.76
2023-11-23T00:50:53.184Z,0.73
2023-11-23T00:53:21.609Z,0.72
2023-11-23T00:55:50.494Z,0.70
2023-11-23T00:58:18.994Z,0.75
2023-11-23T01:00:47.391Z,0.72
2023-11-23T01:03:15.985Z,0.70
2023-11-23T01:05:45.311Z,0.69
2023-11-23T01:08:16.060Z,0.65
2023-11-23T01:10:45.060Z,0.64
2023-11-23T01:13:14.595Z,0.63
2023-11-23T01:15:43.003Z,0.61
2023-11-23T01:18:11.613Z,0.58
2023-11-23T01:20:40.108Z,0.57
2023-11-23T01:23:08.648Z,0.55
2023-11-23T01:25:38.496Z,0.56
2023-11-23T01:28:07.279Z,0.58
2023-11-23T01:30:35.743Z,0.58
2023-11-23T01:33:04.352Z,0.57
2023-11-23T01:35:33.017Z,0.55
2023-11-23T01:38:02.785Z,0.61
2023-11-23T01:40:31.961Z,0.61
2023-11-23T01:43:05.051Z,0.66
2023-11-23T01:45:33.524Z,0.69
2023-11-23T01:48:03.383Z,0.73
2023-11-23T01:50:33.037Z,0.69
2023-11-23T01:53:02.258Z,0.70
2023-11-23T01:55:31.145Z,0.69
2023-11-23T01:58:03.545Z,0.73
2023-11-23T02:00:33.754Z,0.69
2023-11-23T02:03:03.235Z,0.68
2023-11-23T02:05:31.931Z,0.62
2023-11-23T02:08:00.327Z,0.63
2023-11-23T02:10:29.611Z,0.68
2023-11-23T02:12:58.643Z,0.73
2023-11-23T02:15:27.533Z,0.76
2023-11-23T02:18:04.419Z,0.75
2023-11-23T02:20:33.933Z,0.79
2023-11-23T02:23:02.463Z,0.81
2023-11-23T02:25:31.632Z,0.78
2023-11-23T02:28:00.314Z,0.79
2023-11-23T02:30:29.019Z,0.81
2023-11-23T02:32:57.746Z,0.82
2023-11-23T02:35:26.462Z,0.77
2023-11-23T02:37:54.830Z,0.73
2023-11-23T02:40:23.252Z,0.74
2023-11-23T02:42:53.165Z,0.75
2023-11-23T02:45:22.444Z,0.80
2023-11-23T02:47:51.563Z,0.80
2023-11-23T02:50:19.987Z,0.78
2023-11-23T02:52:48.645Z,0.79
2023-11-23T02:55:17.149Z,0.76
2023-11-23T02:57:46.351Z,0.76
2023-11-23T03:00:16.674Z,0.75
2023-11-23T03:02:45.176Z,0.75
2023-11-23T03:05:13.607Z,0.78
2023-11-23T03:07:42.017Z,0.80
2023-11-23T03:10:11.609Z,0.83
2023-11-23T03:12:40.064Z,0.85
2023-11-23T03:15:09.738Z,0.86
2023-11-23T03:17:39.675Z,0.86
2023-11-23T03:20:08.852Z,0.88
2023-11-23T03:22:37.216Z,0.90
2023-11-23T03:25:06.085Z,0.97
2023-11-23T03:27:34.572Z,0.96
2023-11-23T03:30:03.180Z,0.99
2023-11-23T03:32:33.632Z,1.01
2023-11-23T03:35:04.642Z,1.07
2023-11-23T03:37:33.087Z,1.09
2023-11-23T03:40:01.486Z,1.12
2023-11-23T03:42:29.944Z,1.16
2023-11-23T03:44:58.415Z,1.20
2023-11-23T03:47:26.904Z,1.26
2023-11-23T03:49:55.503Z,1.30
2023-11-23T03:52:25.401Z,1.33
2023-11-23T03:54:54.598Z,1.37
2023-11-23T03:57:23.127Z,1.42
2023-11-23T03:59:51.546Z,1.43
2023-11-23T04:02:20.599Z,1.45
2023-11-23T04:04:49.224Z,1.47
2023-11-23T04:07:17.617Z,1.50
2023-11-23T04:09:47.514Z,1.56
2023-11-23T04:12:16.187Z,1.59
2023-11-23T04:14:44.604Z,1.59
2023-11-23T04:17:13.180Z,1.63
2023-11-23T04:19:41.869Z,1.64
2023-11-23T04:22:10.298Z,1.65
2023-11-23T04:24:40.610Z,1.64
2023-11-23T04:27:11.086Z,1.69
2023-11-23T04:29:39.620Z,1.72
2023-11-23T04:32:09.671Z,1.76
2023-11-23T04:34:38.179Z,1.76
2023-11-23T04:37:07.126Z,1.81
2023-11-23T04:39:35.628Z,1.84
2023-11-23T04:42:04.011Z,1.88
2023-11-23T04:44:33.845Z,1.91
2023-11-23T04:47:02.260Z,1.93
2023-11-23T04:49:30.687Z,1.98
2023-11-23T04:51:59.209Z,1.97
2023-11-23T04:54:27.714Z,1.99
2023-11-23T04:56:56.452Z,2.01
2023-11-23T04:59:24.850Z,2.03
2023-11-23T05:01:54.774Z,2.04
2023-11-23T05:04:23.439Z,2.05
2023-11-23T05:09:53.254Z,2.06
2023-11-23T05:12:21.690Z,2.09
2023-11-23T05:14:50.173Z,2.10
2023-11-23T05:17:20.062Z,2.08
2023-11-23T05:19:48.459Z,2.14
2023-11-23T05:22:16.890Z,2.18
2023-11-23T05:24:45.365Z,2.21
2023-11-23T05:27:14.159Z,2.23
2023-11-23T05:29:42.665Z,2.20
2023-11-23T05:32:11.118Z,2.27
2023-11-23T05:34:40.921Z,2.31
2023-11-23T05:37:09.346Z,2.30
2023-11-23T05:39:43.112Z,2.33
2023-11-23T05:42:12.708Z,2.37
2023-11-23T05:44:41.372Z,2.29
2023-11-23T05:47:09.709Z,2.40
2023-11-23T05:49:38.790Z,2.43
2023-11-23T05:52:09.861Z,2.46
2023-11-23T05:54:38.796Z,2.46
2023-11-23T05:57:07.573Z,2.46
2023-11-23T05:59:36.189Z,2.46
2023-11-23T06:02:07.085Z,2.46
2023-11-23T06:04:36.191Z,2.48
2023-11-23T06:07:04.943Z,2.51
2023-11-23T06:09:35.000Z,2.53
2023-11-23T06:12:04.064Z,2.55
2023-11-23T06:14:32.435Z,2.56
2023-11-23T06:17:01.114Z,2.61
2023-11-23T06:19:29.673Z,2.61
2023-11-23T06:21:58.160Z,2.64
2023-11-23T06:24:26.605Z,2.65
2023-11-23T06:26:56.486Z,2.71
2023-11-23T06:29:25.033Z,2.73
2023-11-23T06:31:54.919Z,2.76
2023-11-23T06:34:24.059Z,2.78
2023-11-23T06:36:52.569Z,2.80
2023-11-23T06:39:25.425Z,2.82
2023-11-23T06:41:57.174Z,2.83
2023-11-23T06:44:26.595Z,2.85
2023-11-23T06:46:55.544Z,2.88
2023-11-23T06:49:24.243Z,2.90
2023-11-23T06:51:53.346Z,2.90
2023-11-23T06:54:21.876Z,2.91
2023-11-23T06:56:50.360Z,2.94
2023-11-23T06:59:21.337Z,2.97
2023-11-23T07:01:49.914Z,2.97
2023-11-23T07:04:18.699Z,2.98
2023-11-23T07:06:47.093Z,3.03
2023-11-23T07:09:15.800Z,3.05
2023-11-23T07:11:45.892Z,3.06
2023-11-23T07:14:14.348Z,3.10
2023-11-23T07:16:44.581Z,3.15
2023-11-23T07:19:13.621Z,3.22
2023-11-23T07:21:42.027Z,3.29
2023-11-23T07:24:11.501Z,3.36
2023-11-23T07:26:40.106Z,3.45
2023-11-23T07:29:10.053Z,3.50
2023-11-23T07:31:42.022Z,3.56
2023-11-23T07:34:12.235Z,3.58
2023-11-23T07:36:41.617Z,3.69
2023-11-23T07:39:10.269Z,3.70
2023-11-23T07:41:39.425Z,3.72
2023-11-23T07:44:08.232Z,3.74
2023-11-23T07:46:37.249Z,3.78
2023-11-23T07:49:06.832Z,3.79
2023-11-23T07:51:36.676Z,3.85
2023-11-23T07:54:05.297Z,3.88
2023-11-23T07:56:35.525Z,3.89
2023-11-23T07:59:03.963Z,3.92
2023-11-23T08:01:32.456Z,3.98
2023-11-23T08:04:01.773Z,4.04
2023-11-23T08:06:30.278Z,4.07
2023-11-23T08:09:00.368Z,4.08
2023-11-23T08:11:29.136Z,4.12
2023-11-23T08:13:57.552Z,4.14
2023-11-23T08:16:26.271Z,4.17
2023-11-23T08:18:54.765Z,4.24
2023-11-23T08:21:24.274Z,4.26
2023-11-23T08:23:53.246Z,4.32
2023-11-23T08:26:23.866Z,4.37
2023-11-23T08:28:52.320Z,4.43
2023-11-23T08:31:21.726Z,4.45
2023-11-23T08:33:50.246Z,4.48
2023-11-23T08:36:18.872Z,4.56
2023-11-23T08:38:48.372Z,4.59
2023-11-23T08:41:18.241Z,4.65
2023-11-23T08:43:48.986Z,4.72
2023-11-23T08:46:17.433Z,4.73
2023-11-23T08:48:46.243Z,4.80
2023-11-23T08:51:15.278Z,4.83
2023-11-23T08:53:43.779Z,4.89
2023-11-23T08:56:14.603Z,4.90
2023-11-23T08:58:43.719Z,4.94
2023-11-23T09:01:13.744Z,4.99
2023-11-23T09:03:42.264Z,5.03
2023-11-23T09:06:11.372Z,5.07
2023-11-23T09:08:41.687Z,5.11
2023-11-23T09:11:10.320Z,5.15
2023-11-23T09:13:39.243Z,5.28
2023-11-23T09:16:09.092Z,5.31
2023-11-23T09:18:39.142Z,5.35
2023-11-23T09:21:08.186Z,5.40
2023-11-23T09:23:36.855Z,5.43
2023-11-23T09:26:06.260Z,5.45
2023-11-23T09:28:34.799Z,5.54
2023-11-23T09:31:04.148Z,5.58
2023-11-23T09:33:32.976Z,5.64
2023-11-23T09:36:03.990Z,5.69
2023-11-23T09:38:32.584Z,5.74
2023-11-23T09:41:04.234Z,5.82
2023-11-23T09:43:33.235Z,5.88
2023-11-23T09:46:04.038Z,5.95
2023-11-23T09:48:36.495Z,5.98
2023-11-23T09:51:07.210Z,6.03
2023-11-23T09:53:38.252Z,6.04
2023-11-23T09:56:07.834Z,6.06
2023-11-23T09:58:36.310Z,6.09
2023-11-23T10:01:05.704Z,6.12
2023-11-23T10:03:36.412Z,6.15
2023-11-23T10:06:06.773Z,6.20
2023-11-23T10:08:38.562Z,6.21
2023-11-23T10:11:08.074Z,6.24
2023-11-23T10:13:36.472Z,6.26
2023-11-23T10:16:05.947Z,6.25
2023-11-23T10:18:38.605Z,6.29
2023-11-23T10:21:13.096Z,6.30
2023-11-23T10:23:44.763Z,6.34
2023-11-23T10:26:13.259Z,6.37
2023-11-23T10:28:42.674Z,6.42
2023-11-23T10:31:13.907Z,6.48
2023-11-23T10:33:44.128Z,6.52
2023-11-23T10:36:14.678Z,6.56
2023-11-23T10:38:44.963Z,6.62
2023-11-23T10:41:16.039Z,6.64
2023-11-23T10:43:47.339Z,6.72
2023-11-23T10:46:17.265Z,6.80
2023-11-23T10:48:48.161Z,6.87
2023-11-23T10:51:18.486Z,6.97
2023-11-23T10:53:47.044Z,7.05
2023-11-23T10:56:20.471Z,7.12
2023-11-23T10:58:52.281Z,7.20
2023-11-23T11:01:24.549Z,7.26
2023-11-23T11:03:53.571Z,7.30
2023-11-23T11:06:24.563Z,7.37
2023-11-23T11:08:53.271Z,7.37
2023-11-23T11:11:23.927Z,7.43
2023-11-23T11:14:02.641Z,7.49
2023-11-23T11:16:35.353Z,7.50
2023-11-23T11:19:08.370Z,7.58
2023-11-23T11:21:45.574Z,7.63
2023-11-23T11:24:21.802Z,7.66
2023-11-23T11:26:51.256Z,7.72
2023-11-23T11:29:20.396Z,7.75
2023-11-23T11:31:50.574Z,7.77
2023-11-23T11:34:20.780Z,7.79
2023-11-23T11:37:00.115Z,7.79
2023-11-23T11:39:32.982Z,7.78
2023-11-23T11:42:02.680Z,7.82
2023-11-23T11:44:31.497Z,7.80
2023-11-23T11:47:00.034Z,7.81
2023-11-23T11:49:29.045Z,7.83
2023-11-23T11:51:59.310Z,7.81
2023-11-23T11:54:27.890Z,7.81
2023-11-23T11:56:56.441Z,7.84
2023-11-23T11:59:30.310Z,7.86
2023-11-23T12:01:59.506Z,7.87
2023-11-23T12:04:28.130Z,7.89
2023-11-23T12:06:58.237Z,7.90
2023-11-23T12:09:34.847Z,7.93
2023-11-23T12:12:12.041Z,7.91
2023-11-23T12:14:40.831Z,7.91
2023-11-23T12:17:12.023Z,7.88
2023-11-23T12:19:53.161Z,7.87
2023-11-23T12:22:25.718Z,7.85
2023-11-23T12:24:57.943Z,7.80
2023-11-23T12:27:28.295Z,7.78
2023-11-23T12:29:56.868Z,7.75
2023-11-23T12:32:25.536Z,7.72
2023-11-23T12:34:54.521Z,7.72
2023-11-23T12:37:23.557Z,7.69
2023-11-23T12:39:53.024Z,7.64
2023-11-23T12:42:24.345Z,7.56
2023-11-23T12:44:52.900Z,7.57
2023-11-23T12:47:22.929Z,7.55
2023-11-23T12:49:52.855Z,7.54
2023-11-23T12:52:21.346Z,7.59
2023-11-23T12:54:49.724Z,7.60
2023-11-23T12:57:18.238Z,7.61
2023-11-23T12:59:48.036Z,7.61
2023-11-23T13:02:16.591Z,7.57
2023-11-23T13:04:45.285Z,7.51
2023-11-23T13:07:14.912Z,7.44
2023-11-23T13:09:43.366Z,7.37
2023-11-23T13:12:11.882Z,7.35
2023-11-23T13:14:40.608Z,7.29
2023-11-23T13:17:11.137Z,7.23
2023-11-23T13:19:43.558Z,7.20
2023-11-23T13:22:12.778Z,7.18
2023-11-23T13:24:41.492Z,7.16
2023-11-23T13:27:10.454Z,7.12
2023-11-23T13:29:39.217Z,7.08
2023-11-23T13:32:11.885Z,7.04
2023-11-23T13:34:40.490Z,7.08
2023-11-23T13:37:10.487Z,7.08
2023-11-23T13:39:39.711Z,7.07
2023-11-23T13:42:08.319Z,7.08
2023-11-23T13:44:36.848Z,7.11
2023-11-23T13:47:08.404Z,7.08
2023-11-23T13:49:39.542Z,7.09
2023-11-23T13:52:11.544Z,7.08
2023-11-23T13:54:40.635Z,7.04
2023-11-23T13:57:09.225Z,7.06
2023-11-23T13:59:37.676Z,7.05
2023-11-23T14:02:07.446Z,7.05
2023-11-23T14:04:37.607Z,6.99
2023-11-23T14:07:07.236Z,7.00
2023-11-23T14:09:35.654Z,6.98
2023-11-23T14:12:05.142Z,6.97
2023-11-23T14:14:33.648Z,6.99
2023-11-23T14:17:02.197Z,7.00
2023-11-23T14:19:30.627Z,7.01
2023-11-23T14:22:02.162Z,7.02
2023-11-23T14:24:31.383Z,7.01
2023-11-23T14:26:59.787Z,7.06
2023-11-23T14:29:28.304Z,7.12
2023-11-23T14:31:56.794Z,7.15
2023-11-23T14:34:25.471Z,7.22
2023-11-23T14:36:56.693Z,7.26
2023-11-23T14:39:29.184Z,7.30
2023-11-23T14:41:58.426Z,7.33
2023-11-23T14:44:26.951Z,7.39
2023-11-23T14:46:55.832Z,7.38
2023-11-23T14:49:24.749Z,7.38
2023-11-23T14:51:54.502Z,7.40
2023-11-23T14:54:32.061Z,7.44
2023-11-23T14:57:09.223Z,7.43
2023-11-23T14:59:38.402Z,7.48
2023-11-23T15:02:08.251Z,7.46
2023-11-23T15:04:36.991Z,7.45
2023-11-23T15:07:05.777Z,7.48
2023-11-23T15:09:34.460Z,7.51
2023-11-23T15:12:03.863Z,7.50
2023-11-23T15:14:33.947Z,7.53
2023-11-23T15:17:02.753Z,7.53
2023-11-23T15:19:35.900Z,7.55
2023-11-23T15:22:07.623Z,7.56
2023-11-23T15:24:36.772Z,7.61
2023-11-23T15:27:08.683Z,7.62
2023-11-23T15:29:38.819Z,7.65
2023-11-23T15:32:08.570Z,7.65
2023-11-23T15:34:37.031Z,7.59
2023-11-23T15:37:06.117Z,7.59
2023-11-23T15:39:34.887Z,7.55
2023-11-23T15:42:04.668Z,7.50
2023-11-23T15:44:33.164Z,7.43
2023-11-23T15:47:03.861Z,7.42
2023-11-23T15:49:32.443Z,7.45
2023-11-23T15:52:01.041Z,7.40
2023-11-23T15:54:29.448Z,7.36
2023-11-23T15:56:58.705Z,7.36
2023-11-23T15:59:27.334Z,7.31
2023-11-23T16:01:55.916Z,7.30
2023-11-23T16:04:27.226Z,7.31
2023-11-23T16:06:56.177Z,7.30
2023-11-23T16:09:25.695Z,7.30
2023-11-23T16:11:54.195Z,7.29
2023-11-23T16:14:22.736Z,7.32
2023-11-23T16:16:51.597Z,7.33
2023-11-23T16:19:21.253Z,7.32
2023-11-23T16:21:53.231Z,7.31
2023-11-23T16:24:21.960Z,7.32
2023-11-23T16:26:51.120Z,7.36
2023-11-23T16:29:19.712Z,7.36
2023-11-23T16:31:48.247Z,7.36
2023-11-23T16:34:18.197Z,7.38
2023-11-23T16:36:48.024Z,7.39
2023-11-23T16:39:19.807Z,7.41
2023-11-23T16:41:48.378Z,7.41
2023-11-23T16:44:17.707Z,7.37
2023-11-23T16:46:47.133Z,7.43
2023-11-23T16:49:16.618Z,7.43
2023-11-23T16:51:45.244Z,7.42
2023-11-23T16:54:15.896Z,7.46
2023-11-23T16:56:45.864Z,7.48
2023-11-23T16:59:14.444Z,7.48
2023-11-23T17:01:44.832Z,7.56
2023-11-23T17:04:13.445Z,7.62
2023-11-23T17:06:43.518Z,7.75
2023-11-23T17:09:12.632Z,7.82
2023-11-23T17:11:41.056Z,7.86
2023-11-23T17:14:12.747Z,7.89
2023-11-23T17:16:41.809Z,7.87
2023-11-23T17:19:14.055Z,7.89
2023-11-23T17:21:47.246Z,7.88
2023-11-23T17:24:16.454Z,7.91
2023-11-23T17:26:45.155Z,7.90
2023-11-23T17:29:15.244Z,7.88
2023-11-23T17:31:45.417Z,7.86
2023-11-23T17:34:14.178Z,7.85
2023-11-23T17:36:42.867Z,7.87
2023-11-23T17:39:17.201Z,7.90
2023-11-23T17:41:46.861Z,7.90
2023-11-23T17:44:17.170Z,7.90
2023-11-23T17:46:46.098Z,7.93
2023-11-23T17:49:17.529Z,7.92
2023-11-23T17:51:46.578Z,7.88
2023-11-23T17:54:16.231Z,7.94
2023-11-23T17:56:45.744Z,7.95
2023-11-23T17:59:25.824Z,8.02
2023-11-23T18:02:05.497Z,8.07
2023-11-23T18:04:34.181Z,8.16
2023-11-23T18:07:03.936Z,8.21
2023-11-23T18:09:33.615Z,8.24
2023-11-23T18:12:04.510Z,8.27
2023-11-23T18:14:33.576Z,8.41
2023-11-23T18:17:04.292Z,8.48
2023-11-23T18:19:34.167Z,8.53
2023-11-23T18:22:03.156Z,8.54
2023-11-23T18:24:31.984Z,8.57
2023-11-23T18:27:03.224Z,8.62
2023-11-23T18:29:31.870Z,8.62
2023-11-23T18:32:00.359Z,8.66
2023-11-23T18:34:30.379Z,8.67
2023-11-23T18:36:59.522Z,8.70
2023-11-23T18:39:28.732Z,8.74
2023-11-23T18:41:57.644Z,8.73
2023-11-23T18:44:26.066Z,8.71
2023-11-23T18:46:55.973Z,8.67
2023-11-23T18:49:29.384Z,8.58
2023-11-23T18:51:59.670Z,8.47
2023-11-23T18:54:28.374Z,8.39
2023-11-23T18:56:57.189Z,8.35
2023-11-23T18:59:25.863Z,8.26
2023-11-23T19:01:55.848Z,8.25
2023-11-23T19:04:24.637Z,8.25
2023-11-23T19:06:56.176Z,8.30
2023-11-23T19:09:28.793Z,8.38
2023-11-23T19:11:58.409Z,8.51
2023-11-23T19:14:27.402Z,8.58
2023-11-23T19:16:56.375Z,8.59
2023-11-23T19:19:25.348Z,8.67
2023-11-23T19:21:54.510Z,8.65
2023-11-23T19:24:24.627Z,8.73
2023-11-23T19:26:55.092Z,8.74
2023-11-23T19:29:34.926Z,8.76
2023-11-23T19:32:09.047Z,8.75
2023-11-23T19:34:38.422Z,8.76
2023-11-23T19:37:07.620Z,8.74
2023-11-23T19:39:37.270Z,8.73
2023-11-23T19:42:09.334Z,8.76
2023-11-23T19:44:38.502Z,8.68
2023-11-23T19:47:07.627Z,8.70
2023-11-23T19:49:36.641Z,8.71
2023-11-23T19:52:14.465Z,8.71
2023-11-23T19:54:43.947Z,8.73
2023-11-23T19:57:17.007Z,8.70
2023-11-23T19:59:47.611Z,8.71
2023-11-23T20:02:16.888Z,8.74
2023-11-23T20:04:46.630Z,8.74
2023-11-23T20:07:15.073Z,8.73
2023-11-23T20:09:44.578Z,8.74
2023-11-23T20:12:15.297Z,8.72
2023-11-23T20:14:43.870Z,8.72
2023-11-23T20:17:12.412Z,8.67
2023-11-23T20:19:48.671Z,8.65
2023-11-23T20:22:17.692Z,8.58
2023-11-23T20:24:47.535Z,8.59
2023-11-23T20:27:17.791Z,8.57
2023-11-23T20:29:46.847Z,8.58
2023-11-23T20:32:15.601Z,8.60
2023-11-23T20:34:45.823Z,8.60
2023-11-23T20:37:14.773Z,8.60
2023-11-23T20:39:43.438Z,8.61
2023-11-23T20:42:12.754Z,8.65
2023-11-23T20:44:45.084Z,8.69
2023-11-23T20:47:13.725Z,8.68
2023-11-23T20:49:42.161Z,8.64
2023-11-23T20:52:11.204Z,8.67
2023-11-23T20:54:39.815Z,8.69
2023-11-23T20:57:09.322Z,8.68
2023-11-23T20:59:38.394Z,8.71
2023-11-23T21:02:10.109Z,8.68
2023-11-23T21:04:39.347Z,8.66
2023-11-23T21:07:09.044Z,8.56
2023-11-23T21:09:38.445Z,8.67
2023-11-23T21:12:14.885Z,8.71
2023-11-23T21:14:50.452Z,8.68
2023-11-23T21:17:20.451Z,8.73
2023-11-23T21:19:49.266Z,8.74
2023-11-23T21:22:18.598Z,8.74
2023-11-23T21:24:47.192Z,8.75
2023-11-23T21:27:16.371Z,8.80
2023-11-23T21:29:44.936Z,8.77
2023-11-23T21:32:16.680Z,8.78
2023-11-23T21:34:47.703Z,8.82
2023-11-23T21:37:16.967Z,8.83
2023-11-23T21:39:45.886Z,8.88
2023-11-23T21:42:15.925Z,8.91
2023-11-23T21:44:44.315Z,8.92
2023-11-23T21:47:12.767Z,9.01
2023-11-23T21:49:42.406Z,9.06
2023-11-23T21:52:13.492Z,9.13
2023-11-23T21:54:50.214Z,9.27
2023-11-23T21:57:22.845Z,9.35
2023-11-23T21:59:51.637Z,9.37
2023-11-23T22:02:20.283Z,9.33
2023-11-23T22:04:48.777Z,9.27
2023-11-23T22:07:18.642Z,9.26
2023-11-23T22:09:47.169Z,9.25
2023-11-23T22:12:15.812Z,9.24
2023-11-23T22:14:44.483Z,9.20
2023-11-23T22:17:13.822Z,9.31
2023-11-23T22:19:43.718Z,9.27
2023-11-23T22:22:12.776Z,9.28
2023-11-23T22:24:44.540Z,9.27
2023-11-23T22:27:13.492Z,9.28
2023-11-23T22:29:42.380Z,9.25
2023-11-23T22:32:11.716Z,9.21
2023-11-23T22:34:40.888Z,9.22
2023-11-23T22:37:10.089Z,9.15
2023-11-23T22:39:38.932Z,9.14
2023-11-23T22:42:16.184Z,9.11
2023-11-23T22:44:50.358Z,9.11
2023-11-23T22:47:19.633Z,9.10
2023-11-23T22:49:50.589Z,9.10
2023-11-23T22:52:20.560Z,9.11
2023-11-23T22:54:49.256Z,9.12
2023-11-23T22:57:19.171Z,9.10
2023-11-23T22:59:47.614Z,9.06
2023-11-23T23:02:16.351Z,9.08
2023-11-23T23:04:46.349Z,9.09
2023-11-23T23:07:14.860Z,9.10
2023-11-23T23:09:43.413Z,9.13
2023-11-23T23:12:12.038Z,9.17
2023-11-23T23:14:41.900Z,9.23
2023-11-23T23:17:10.443Z,8.91
2023-11-23T23:19:38.893Z,8.36
2023-11-23T23:22:16.944Z,8.29
2023-11-23T23:24:52.683Z,8.21
2023-11-23T23:27:21.270Z,8.10
2023-11-23T23:29:52.098Z,8.05
2023-11-23T23:32:20.499Z,8.02
2023-11-23T23:34:50.259Z,8.01
2023-11-23T23:37:19.229Z,8.05
2023-11-23T23:39:48.657Z,8.09
2023-11-23T23:42:17.477Z,8.13
2023-11-23T23:44:46.960Z,8.11
2023-11-23T23:47:16.809Z,8.12
2023-11-23T23:49:45.623Z,8.08
2023-11-23T23:52:14.036Z,8.04
2023-11-23T23:54:43.103Z,8.03
2023-11-23T23:57:11.680Z,7.99
2023-11-23T23:59:41.633Z,7.90
